<?xml version='1.0' encoding='UTF-8'?><gpx version="1.1" creator="JPX - https://github.com/jenetics/jpx" xmlns="http://www.topografix.com/GPX/1/1"><trk><trkseg><trkpt lat="46.005441" lon="12.7504673"><ele>53.0</ele><time>2026-04-11T11:45:31.195Z</time></trkpt><trkpt lat="46.0053615" lon="12.7504807"><ele>53.0</ele><time>2026-04-11T11:45:33.195Z</time></trkpt><trkpt lat="46.0053063" lon="12.7505286"><ele>53.0</ele><time>2026-04-11T11:45:34.195Z</time></trkpt><trkpt lat="46.0052434" lon="12.7505945"><ele>53.0</ele><time>2026-04-11T11:45:35.195Z</time></trkpt><trkpt lat="46.0051394" lon="12.7507792"><ele>53.0</ele><time>2026-04-11T11:45:37.195Z</time></trkpt><trkpt lat="46.0050979" lon="12.7508476"><ele>53.0</ele><time>2026-04-11T11:45:38.195Z</time></trkpt><trkpt lat="46.0050185" lon="12.7509252"><ele>53.0</ele><time>2026-04-11T11:45:40.195Z</time></trkpt><trkpt lat="46.0049244" lon="12.7509743"><ele>53.0</ele><time>2026-04-11T11:45:42.195Z</time></trkpt><trkpt lat="46.0048289" lon="12.7510262"><ele>53.0</ele><time>2026-04-11T11:45:44.195Z</time></trkpt><trkpt lat="46.0047303" lon="12.7510728"><ele>53.0</ele><time>2026-04-11T11:45:46.195Z</time></trkpt><trkpt lat="46.0046488" lon="12.7511168"><ele>53.2</ele><time>2026-04-11T11:45:48.196Z</time></trkpt><trkpt lat="46.0045544" lon="12.7511793"><ele>53.4</ele><time>2026-04-11T11:45:50.195Z</time></trkpt><trkpt lat="46.0044436" lon="12.7512243"><ele>53.60000000000001</ele><time>2026-04-11T11:45:52.195Z</time></trkpt><trkpt lat="46.0043415" lon="12.7512681"><ele>53.800000000000004</ele><time>2026-04-11T11:45:54.195Z</time></trkpt><trkpt lat="46.0042882" lon="12.7513549"><ele>54.0</ele><time>2026-04-11T11:45:56.195Z</time></trkpt><trkpt lat="46.0042935" lon="12.7516725"><ele>54.0</ele><time>2026-04-11T11:45:59.195Z</time></trkpt><trkpt lat="46.0043114" lon="12.7518474"><ele>54.0</ele><time>2026-04-11T11:46:00.196Z</time></trkpt><trkpt lat="46.0043269" lon="12.7520452"><ele>54.0</ele><time>2026-04-11T11:46:01.196Z</time></trkpt><trkpt lat="46.0043469" lon="12.7522647"><ele>54.0</ele><time>2026-04-11T11:46:02.195Z</time></trkpt><trkpt lat="46.0043795" lon="12.7524886"><ele>53.75</ele><time>2026-04-11T11:46:03.195Z</time></trkpt><trkpt lat="46.0044215" lon="12.7527083"><ele>53.5</ele><time>2026-04-11T11:46:04.195Z</time></trkpt><trkpt lat="46.0044672" lon="12.7529141"><ele>53.25</ele><time>2026-04-11T11:46:05.195Z</time></trkpt><trkpt lat="46.0045264" lon="12.7530957"><ele>53.0</ele><time>2026-04-11T11:46:06.195Z</time></trkpt><trkpt lat="46.0045999" lon="12.7532584"><ele>53.0</ele><time>2026-04-11T11:46:07.196Z</time></trkpt><trkpt lat="46.0046751" lon="12.7534114"><ele>53.0</ele><time>2026-04-11T11:46:08.195Z</time></trkpt><trkpt lat="46.0047532" lon="12.7535524"><ele>53.0</ele><time>2026-04-11T11:46:09.195Z</time></trkpt><trkpt lat="46.0048263" lon="12.753693"><ele>53.0</ele><time>2026-04-11T11:46:10.195Z</time></trkpt><trkpt lat="46.0048887" lon="12.7538447"><ele>53.5</ele><time>2026-04-11T11:46:11.195Z</time></trkpt><trkpt lat="46.0049377" lon="12.7540026"><ele>54.0</ele><time>2026-04-11T11:46:12.195Z</time></trkpt><trkpt lat="46.0049815" lon="12.754166"><ele>54.5</ele><time>2026-04-11T11:46:13.195Z</time></trkpt><trkpt lat="46.0050165" lon="12.7543335"><ele>55.0</ele><time>2026-04-11T11:46:14.196Z</time></trkpt><trkpt lat="46.0050508" lon="12.7545014"><ele>55.0</ele><time>2026-04-11T11:46:15.195Z</time></trkpt><trkpt lat="46.0050822" lon="12.7546649"><ele>55.0</ele><time>2026-04-11T11:46:16.196Z</time></trkpt><trkpt lat="46.0051138" lon="12.7548314"><ele>55.0</ele><time>2026-04-11T11:46:17.195Z</time></trkpt></trkseg></trk></gpx>